New Haven, MI (48048)

10:57 AM EDT on August 30, 2015 (GMT -0400)
26 Mile and North Ave | | Change Station
CLOSE
Current Station
Personal Weather Station
Location: Macomb, MI
Elevation: 627 ft
Nearby Weather Stations

Elev 627 ft 42.71 °N, 82.88 °W | Updated 11 seconds ago

Overcast
Overcast
72.0 °F
Feels Like 72.0 °F
N
0.0
Wind Variable Wind from South
Gusts 0.0 mph

Today
High -- | Low -- °F
--% Chance of Precip.
Yesterday
High -- | Low -- °F
Precip. -- in
6:53 AM 8:09 PM
Full, 99% visible
Pressure 30.09 in
Visibility 6.0 miles
Clouds Scattered Clouds 700 ft
Mostly Cloudy 3400 ft
Overcast 5000 ft
Dew Point 71 °F
Humidity 96%
Rainfall 0.00 in
Snow Depth Not available.
UV 2.0 out of 12
Pollen 9.60 out of 12
Air Quality Not available.
Flu Activity Not available.
METAR KMTC 301355Z 00000KT 6SM BR SCT007 BKN034 OVC050 21/21 A3007 RMK SLP188 T02110206
Pressure 30.09 in
Visibility 6.0 miles
Clouds Scattered Clouds 700 ft
Mostly Cloudy 3400 ft
Overcast 5000 ft
Dew Point 71 °F
Humidity 96%
Rainfall 0.00 in
Snow Depth Not available.
UV 2.0 out of 12
Pollen 9.60 out of 12
Air Quality Not available.
Flu Activity Not available.
METAR KMTC 301355Z 00000KT 6SM BR SCT007 BKN034 OVC050 21/21 A3007 RMK SLP188 T02110206

10-Day Weather Forecast

×

Almanac

Astronomy

Aug. 30, 2015 Rise Set
Actual Time
Civil Twilight
Nautical Twilight
Astronomical Twilight
Moon
Length of Visible Light
Length of Day
Tomorrow will be .
, % of the Moon is Illuminated

Today's Extremes

State Highs State Lows

Community

WunderPhotos

Upload Photos

1,850,974 photos uploaded!

WunderBlogs® & News

Nearby

Air Quality

  Air Quality AQ Index Pollutant
Not available.

Snow Depth

Station Depth Elevation

Earthquake Activity

City Distance Mag. Time & Date
Minimum magnitude displayed is 2.5.

Coastal Water Temperatures

Place Temperature

Stations

Nearby Weather Stations

Station Location Temp. Windchill Dew Point Humidity Wind Precip. Elev Updated Type